Terminal Aerodrome Forecast
Issued by NWS

Home | Current Version | Previous Version | Graphics & Text | Print | Product List | Glossary On
Versions: 1 2 3 4 5 6 7 8 9 10 11 12 13
000
FTUS43 KMPX 161734
TAFRNH
TAF
KRNH 161734Z 1618/1718 22009KT P6SM SKC
     FM170000 19008KT P6SM BKN250
     FM170800 19006KT P6SM BKN100
     FM171200 19007KT 6SM -SN OVC030
     FM171700 23007KT P6SM OVC050=

USA.gov is the U.S. government's official web portal to all federal, state and local government web resources and services.